US Aviators Van Nuys Flight School Los Angeles Pilot school at Van Nuys Simulator Flight Training Profesional Pilot Instruction Learn to Fly

U.S. Aviators

Learn to fly here! (818) 779-2105

Weather at Van Nuys Airport

Observed:Sat Oct 25, 14:51 PDT
Age:57 min ago
Wind:SE at 3 mph
Visibility:10 miles
Clouds:Scattered clouds
Temperature:82°F (28°C)
Dewpoint:39°F (4°C)
Humidity:21%
Barometer:1016 hPa (30.01 in Hg)

METAR

KVNY 252151Z 13005KT 10SM SCT085 28/04 A3001 RMK AO2 SLP153 T02780039